Time;durP1;ratioP1;P1;durP2;ratioP2;P2;SDS_P1;SDS_P2;PMS_P1;PMS_P2;Temp;Humidity;BMP_temperature;BMP_pressure;BME280_temperature;BME280_humidity;BME280_pressure;Samples;Min_cycle;Max_cycle;Signal;HPM_P1;HPM_P2
2022/09/20 00:01:31;;;;;;;3.33;0.80;;;;;;;11.29;65.86;100749.59;4926272;28;97866;-64
2022/09/20 00:03:58;;;;;;;3.13;1.80;;;;;;;11.25;65.61;100753.91;4939954;28;97724;-64
2022/09/20 00:06:28;;;;;;;3.13;0.40;;;;;;;11.22;65.57;100750.94;4966558;28;98019;-70
2022/09/20 00:08:55;;;;;;;0.50;0.17;;;;;;;11.18;65.37;100753.34;4940830;28;97511;-64
2022/09/20 00:11:25;;;;;;;3.28;0.10;;;;;;;11.16;65.56;100758.19;4955619;28;97916;-70
2022/09/20 00:13:53;;;;;;;1.25;0.10;;;;;;;11.13;65.52;100758.72;4926509;28;99846;-64
2022/09/20 00:16:26;;;;;;;0.57;0.10;;;;;;;11.10;65.52;100761.13;4985073;28;97405;-64
2022/09/20 00:18:56;;;;;;;1.95;0.10;;;;;;;11.09;65.35;100762.22;4925687;28;97919;-70
2022/09/20 00:21:26;;;;;;;0.52;0.10;;;;;;;11.04;65.70;100754.88;4939418;28;97895;-70
2022/09/20 00:23:53;;;;;;;0.75;0.10;;;;;;;11.02;65.37;100757.84;4956981;28;99596;-70
2022/09/20 00:26:19;;;;;;;0.20;0.10;;;;;;;11.01;65.56;100755.44;4970673;28;99430;-64
2022/09/20 00:28:46;;;;;;;0.35;0.05;;;;;;;10.97;65.86;100765.94;4960975;28;118088;-70
2022/09/20 00:31:14;;;;;;;1.00;0.10;;;;;;;10.94;65.84;100766.47;4955780;28;97843;-70
2022/09/20 00:36:27;;;;;;;0.40;0.10;;;;;;;10.89;65.83;100774.53;4947065;28;97619;-64
2022/09/20 00:39:00;;;;;;;2.75;0.10;;;;;;;10.86;65.72;100771.53;4923710;28;97876;-64
2022/09/20 00:41:27;;;;;;;0.40;0.10;;;;;;;10.85;65.96;100767.22;4917321;28;97876;-64
2022/09/20 00:43:54;;;;;;;0.28;0.10;;;;;;;10.80;66.02;100774.19;4940558;28;118417;-70
2022/09/20 00:46:42;;;;;;;0.63;0.10;;;;;;;10.79;65.92;100769.88;4921649;28;126173;-64
2022/09/20 00:49:18;;;;;;;0.55;0.10;;;;;;;10.77;65.63;100776.63;4976303;28;97611;-64
2022/09/20 00:51:51;;;;;;;0.70;0.10;;;;;;;10.74;65.72;100775.25;4912075;28;97650;-64
2022/09/20 00:54:22;;;;;;;0.60;0.10;;;;;;;10.71;65.94;100778.47;4969128;28;98040;-70
2022/09/20 00:56:48;;;;;;;1.02;0.13;;;;;;;10.71;66.23;100777.66;4926587;28;109834;-64
2022/09/20 00:59:33;;;;;;;1.08;0.10;;;;;;;10.65;65.46;100782.22;4936816;28;97552;-64
2022/09/20 01:02:14;;;;;;;1.70;0.10;;;;;;;10.65;66.27;100775.97;4928854;28;97611;-70
2022/09/20 01:04:42;;;;;;;1.15;0.10;;;;;;;10.65;66.26;100781.38;4961192;28;98004;-70
2022/09/20 01:07:10;;;;;;;0.50;0.10;;;;;;;10.65;66.31;100776.81;4930871;28;97324;-70
2022/09/20 01:09:37;;;;;;;0.30;0.10;;;;;;;10.64;65.64;100782.47;4927600;28;98137;-65
2022/09/20 01:12:11;;;;;;;0.57;0.10;;;;;;;10.63;65.73;100786.22;4973263;28;97852;-69
2022/09/20 01:14:40;;;;;;;0.50;0.10;;;;;;;10.61;66.11;100786.50;4945063;28;97585;-69
2022/09/20 01:17:06;;;;;;;0.85;0.20;;;;;;;10.59;66.25;100785.94;4960780;28;97735;-64
2022/09/20 01:20:10;;;;;;;1.13;0.20;;;;;;;10.56;65.85;100781.88;4943958;28;117108;-70
2022/09/20 01:23:13;;;;;;;0.30;0.10;;;;;;;10.54;65.91;100784.03;4982719;28;107040;-64
2022/09/20 01:26:10;;;;;;;2.47;0.20;;;;;;;10.51;65.83;100787.22;4975198;28;98542;-70
2022/09/20 01:28:41;;;;;;;0.40;0.10;;;;;;;10.52;66.26;100782.66;4964116;28;97876;-70
2022/09/20 01:31:14;;;;;;;0.85;0.20;;;;;;;10.52;65.90;100786.16;4973961;28;97764;-64
2022/09/20 01:33:53;;;;;;;1.48;0.10;;;;;;;10.50;65.64;100785.63;4945128;28;100562;-64
2022/09/20 01:36:37;;;;;;;1.92;0.10;;;;;;;10.47;65.65;100779.94;4943549;28;97452;-70
2022/09/20 01:39:42;;;;;;;0.93;0.10;;;;;;;10.46;66.30;100778.31;4958193;28;111702;-64
2022/09/20 01:42:11;;;;;;;0.63;0.10;;;;;;;10.46;66.07;100781.81;4976328;28;97739;-69
2022/09/20 01:44:57;;;;;;;0.65;0.10;;;;;;;10.44;66.21;100785.81;4960303;28;97555;-64
2022/09/20 01:48:05;;;;;;;0.17;0.00;;;;;;;10.42;65.63;100785.28;4945464;28;97648;-64
2022/09/20 01:51:23;;;;;;;1.05;0.25;;;;;;;10.42;65.73;100786.09;4967633;28;97716;-69
2022/09/20 01:54:32;;;;;;;0.40;0.10;;;;;;;10.36;66.00;100786.31;4957759;28;97750;-64
2022/09/20 01:57:43;;;;;;;1.02;0.20;;;;;;;10.35;65.55;100795.47;4960213;28;97583;-64
2022/09/20 02:00:26;;;;;;;0.43;0.10;;;;;;;10.31;65.52;100793.28;4955726;28;97997;-70
2022/09/20 02:03:33;;;;;;;1.98;0.25;;;;;;;10.31;65.84;100792.47;4944070;28;98052;-69
2022/09/20 02:06:38;;;;;;;1.80;0.30;;;;;;;10.29;66.16;100795.41;4953734;28;97679;-69
2022/09/20 02:09:44;;;;;;;0.80;0.20;;;;;;;10.27;65.84;100799.44;4961977;28;97653;-64
2022/09/20 02:12:30;;;;;;;1.17;0.30;;;;;;;10.27;66.22;100797.56;4943813;28;97660;-64
2022/09/20 02:16:03;;;;;;;1.23;0.20;;;;;;;10.23;65.74;100807.19;4973301;28;97423;-64
2022/09/20 02:18:40;;;;;;;1.40;0.20;;;;;;;10.26;66.01;100800.53;4868989;28;107930;-69
2022/09/20 02:21:38;;;;;;;1.65;0.30;;;;;;;10.23;65.64;100812.59;4888360;28;98225;-69
2022/09/20 02:24:36;;;;;;;2.90;0.32;;;;;;;10.25;65.99;100804.25;4926471;28;99536;-69
2022/09/20 02:27:35;;;;;;;1.20;0.30;;;;;;;10.25;66.13;100807.75;4937049;28;99483;-69
2022/09/20 02:30:27;;;;;;;1.38;0.43;;;;;;;10.25;66.34;100812.34;4985295;28;97179;-70
2022/09/20 02:33:29;;;;;;;0.85;0.35;;;;;;;10.24;65.83;100810.69;4941028;28;97920;-64
2022/09/20 02:36:39;;;;;;;3.53;0.40;;;;;;;10.27;66.15;100808.34;4982801;28;97365;-64
2022/09/20 02:39:10;;;;;;;1.27;0.30;;;;;;;10.27;65.97;100812.91;4924350;28;98992;-69
2022/09/20 02:42:28;;;;;;;1.92;0.32;;;;;;;10.26;66.14;100814.00;4934288;28;97885;-64
2022/09/20 02:45:34;;;;;;;1.77;0.30;;;;;;;10.28;66.36;100818.03;4940040;28;97866;-64
2022/09/20 02:48:04;;;;;;;2.30;0.40;;;;;;;10.29;66.64;100808.88;4974404;28;97700;-70
2022/09/20 02:51:05;;;;;;;2.92;0.30;;;;;;;10.27;66.28;100818.31;4972673;28;97689;-69
2022/09/20 02:54:26;;;;;;;0.98;0.30;;;;;;;10.28;65.81;100820.72;4945434;28;97374;-70
2022/09/20 02:57:40;;;;;;;0.88;0.30;;;;;;;10.26;66.04;100820.19;4964744;28;97570;-70
2022/09/20 03:00:45;;;;;;;0.82;0.30;;;;;;;10.25;65.79;100825.81;4975152;28;97727;-69
2022/09/20 03:03:26;;;;;;;1.00;0.22;;;;;;;10.26;66.40;100822.88;4945980;28;97577;-70
2022/09/20 03:06:23;;;;;;;0.70;0.20;;;;;;;10.26;66.24;100822.06;4959399;28;97579;-64
2022/09/20 03:09:26;;;;;;;0.65;0.20;;;;;;;10.31;66.34;100822.09;4954534;28;97766;-64
2022/09/20 03:12:34;;;;;;;2.25;0.40;;;;;;;10.42;66.05;100825.72;4959419;28;97787;-64
2022/09/20 03:15:15;;;;;;;1.77;0.40;;;;;;;10.50;66.29;100825.22;4945097;28;97762;-65
2022/09/20 03:17:56;;;;;;;1.92;0.40;;;;;;;10.54;66.40;100829.84;4974587;28;97488;-65
2022/09/20 03:20:58;;;;;;;5.35;0.55;;;;;;;10.54;66.17;100821.75;4975002;28;97825;-64
2022/09/20 03:24:17;;;;;;;1.98;0.32;;;;;;;10.61;66.13;100832.34;4957784;28;97789;-69
2022/09/20 03:27:34;;;;;;;1.48;0.38;;;;;;;10.62;66.47;100833.94;4951348;28;113936;-64
2022/09/20 03:30:16;;;;;;;1.80;0.30;;;;;;;10.66;66.05;100829.66;4904669;28;110299;-64
2022/09/20 03:33:06;;;;;;;1.60;0.40;;;;;;;10.69;66.18;100833.72;4983252;28;97571;-65
2022/09/20 03:35:54;;;;;;;2.70;0.43;;;;;;;10.72;66.16;100833.19;4949733;28;97651;-64
2022/09/20 03:39:01;;;;;;;1.52;0.40;;;;;;;10.72;66.01;100828.59;4957775;28;97523;-70
2022/09/20 03:42:03;;;;;;;1.80;0.40;;;;;;;10.73;66.05;100840.22;4944964;28;97498;-70
2022/09/20 03:45:05;;;;;;;1.20;0.35;;;;;;;10.76;66.68;100840.50;4976486;28;97600;-65
2022/09/20 03:47:49;;;;;;;2.40;0.40;;;;;;;10.74;66.23;100834.56;4941777;28;98567;-64
2022/09/20 03:50:44;;;;;;;1.33;0.30;;;;;;;10.75;66.51;100828.09;4940710;28;97782;-70
2022/09/20 03:53:51;;;;;;;1.48;0.50;;;;;;;10.78;66.52;100827.59;4974324;28;97360;-65
2022/09/20 03:56:38;;;;;;;1.23;0.40;;;;;;;10.77;66.77;100831.38;4972978;28;100129;-64
2022/09/20 03:59:33;;;;;;;2.22;0.60;;;;;;;10.78;65.79;100832.16;4957671;28;98451;-65
2022/09/20 04:02:32;;;;;;;2.00;0.38;;;;;;;10.75;66.49;100833.50;4958160;28;97750;-64
2022/09/20 04:05:29;;;;;;;2.40;0.88;;;;;;;10.79;66.20;100831.91;4969601;28;99110;-64
2022/09/20 04:08:34;;;;;;;3.55;0.60;;;;;;;10.78;66.17;100837.56;4933845;28;100138;-70
2022/09/20 04:11:17;;;;;;;1.65;0.70;;;;;;;10.78;66.42;100841.06;4947339;28;97827;-70
2022/09/20 04:14:18;;;;;;;1.55;0.70;;;;;;;10.79;66.26;100845.38;4969603;28;97522;-70
2022/09/20 04:17:11;;;;;;;3.65;0.85;;;;;;;10.77;65.97;100842.16;4901271;28;97131;-70
2022/09/20 04:19:42;;;;;;;2.63;0.93;;;;;;;10.78;66.77;100842.97;4953447;28;98048;-64
2022/09/20 04:22:09;;;;;;;1.85;0.80;;;;;;;10.79;66.69;100845.38;4967441;28;97655;-64
2022/09/20 04:25:03;;;;;;;2.22;0.93;;;;;;;10.78;66.01;100840.25;4973372;28;121894;-65
2022/09/20 04:27:44;;;;;;;2.20;0.95;;;;;;;10.82;66.51;100852.16;4982467;28;97194;-69
2022/09/20 04:30:42;;;;;;;3.60;1.10;;;;;;;10.79;66.12;100844.56;4956728;28;117856;-70
2022/09/20 04:33:30;;;;;;;6.93;1.30;;;;;;;10.82;66.60;100849.47;4927702;28;97859;-70
2022/09/20 04:36:37;;;;;;;2.03;1.02;;;;;;;10.82;66.59;100852.16;4947697;28;98346;-70
2022/09/20 04:39:21;;;;;;;2.97;1.25;;;;;;;10.80;66.49;100849.69;4941934;28;98024;-70
2022/09/20 04:42:08;;;;;;;3.33;1.33;;;;;;;10.82;66.40;100857.53;4933457;28;97799;-70
2022/09/20 04:45:07;;;;;;;3.35;1.13;;;;;;;10.81;66.70;100854.03;4955220;28;99613;-64
2022/09/20 04:48:34;;;;;;;4.53;1.38;;;;;;;10.79;66.37;100860.75;4976047;28;97681;-64
2022/09/20 04:51:33;;;;;;;4.50;1.50;;;;;;;10.78;66.48;100859.94;4970633;28;98207;-64
2022/09/20 04:54:43;;;;;;;2.55;0.98;;;;;;;10.78;66.24;100862.63;4974613;28;97546;-64
2022/09/20 04:57:38;;;;;;;2.42;1.30;;;;;;;10.77;66.14;100863.72;4957390;28;97669;-66
2022/09/20 05:00:18;;;;;;;3.53;0.85;;;;;;;10.82;66.71;100865.63;4973821;28;97727;-66
2022/09/20 05:03:15;;;;;;;4.10;1.42;;;;;;;10.79;66.60;100869.66;4977309;28;97456;-66
2022/09/20 05:06:29;;;;;;;4.53;1.20;;;;;;;10.79;66.52;100872.34;4969478;28;98013;-65
2022/09/20 05:09:25;;;;;;;3.63;1.40;;;;;;;10.80;66.93;100873.97;4947580;28;100149;-65
2022/09/20 05:12:01;;;;;;;2.47;1.17;;;;;;;10.82;67.28;100873.72;4954144;28;98397;-65
2022/09/20 05:15:10;;;;;;;3.08;1.40;;;;;;;10.84;66.60;100885.06;4957492;28;97299;-65
2022/09/20 05:18:10;;;;;;;4.13;1.55;;;;;;;10.86;66.47;100885.63;4926771;28;98035;-65
2022/09/20 05:21:02;;;;;;;3.17;1.55;;;;;;;10.88;66.57;100886.16;4950225;28;97665;-65
2022/09/20 05:23:59;;;;;;;3.67;1.30;;;;;;;10.87;66.38;100886.44;4959854;28;97898;-65
2022/09/20 05:27:12;;;;;;;6.43;2.08;;;;;;;10.89;66.41;100889.69;4973541;28;98045;-65
2022/09/20 05:30:02;;;;;;;4.15;1.80;;;;;;;10.88;66.51;100893.44;4972827;28;98046;-70
2022/09/20 05:33:04;;;;;;;3.45;1.15;;;;;;;10.87;66.87;100887.25;4951163;28;97778;-70
2022/09/20 05:35:55;;;;;;;4.85;1.70;;;;;;;10.88;66.57;100896.94;4910026;28;97809;-70
2022/09/20 05:38:58;;;;;;;2.53;1.23;;;;;;;10.89;66.63;100893.19;4977727;28;98747;-70
2022/09/20 05:41:43;;;;;;;3.20;1.57;;;;;;;10.87;66.31;100897.22;4939585;28;98358;-70
2022/09/20 05:44:44;;;;;;;5.65;2.22;;;;;;;10.90;66.40;100899.41;4972289;28;97832;-70
2022/09/20 05:47:18;;;;;;;3.75;1.98;;;;;;;10.90;66.56;100899.41;4947048;28;97617;-69
2022/09/20 05:50:25;;;;;;;5.88;1.90;;;;;;;10.87;66.54;100905.31;4960576;28;97431;-70
2022/09/20 05:53:36;;;;;;;5.57;1.58;;;;;;;10.84;66.65;100906.63;4972223;28;97596;-70
2022/09/20 05:56:48;;;;;;;4.28;2.15;;;;;;;10.86;66.44;100911.78;4976073;28;98071;-70
2022/09/20 05:59:33;;;;;;;8.95;2.30;;;;;;;10.87;66.46;100910.69;4965608;28;97593;-69
2022/09/20 06:02:15;;;;;;;4.20;1.90;;;;;;;10.91;66.47;100909.13;4924562;28;98224;-70
2022/09/20 06:05:08;;;;;;;3.65;1.73;;;;;;;10.96;66.46;100917.22;4953279;28;99752;-69
2022/09/20 06:07:46;;;;;;;4.45;2.13;;;;;;;11.00;66.54;100919.19;4971816;28;97781;-69
2022/09/20 06:11:10;;;;;;;4.95;2.00;;;;;;;11.06;66.66;100920.81;4943360;28;99070;-69
2022/09/20 06:14:14;;;;;;;8.13;2.28;;;;;;;11.11;66.47;100930.84;4895534;28;97468;-69
2022/09/20 06:16:58;;;;;;;;;;;;;;;11.11;66.06;100933.53;4897188;28;97695;-69
2022/09/20 06:19:44;;;;;;;3.80;1.73;;;;;;;11.20;66.05;100936.56;4918591;28;97721;-70
2022/09/20 06:22:33;;;;;;;4.53;1.95;;;;;;;11.27;66.17;100939.84;4964867;28;97594;-64
2022/09/20 06:25:08;;;;;;;4.28;1.95;;;;;;;11.34;66.12;100945.03;4942810;28;99388;-64
2022/09/20 06:28:11;;;;;;;4.18;1.90;;;;;;;11.34;66.12;100947.72;4993327;28;97925;-64
2022/09/20 06:30:43;;;;;;;4.78;2.17;;;;;;;11.38;66.04;100948.81;4971250;28;97737;-64
2022/09/20 06:33:17;;;;;;;4.30;2.10;;;;;;;11.37;66.46;100953.41;4937178;28;105989;-64
2022/09/20 06:35:49;;;;;;;3.10;1.55;;;;;;;11.38;66.56;100956.91;4942308;28;97062;-64
2022/09/20 06:41:27;;;;;;;4.50;1.50;;;;;;;11.28;66.49;100953.09;4973200;28;97859;-64
2022/09/20 06:43:59;;;;;;;4.72;1.90;;;;;;;11.29;66.57;100960.09;4935552;28;97982;-64
2022/09/20 06:46:27;;;;;;;2.92;1.80;;;;;;;11.30;66.67;100958.22;4959774;28;97679;-64
2022/09/20 06:48:55;;;;;;;4.13;1.45;;;;;;;11.31;66.27;100965.22;4936637;28;98016;-64
2022/09/20 06:51:23;;;;;;;3.65;1.38;;;;;;;11.33;66.31;100965.00;4920715;28;97943;-64
2022/09/20 06:53:50;;;;;;;3.17;1.15;;;;;;;11.38;66.50;100970.41;4950891;28;97693;-64
2022/09/20 06:56:19;;;;;;;2.03;0.98;;;;;;;11.41;66.20;100967.19;4959725;28;97453;-65
2022/09/20 06:58:45;;;;;;;3.05;1.10;;;;;;;11.50;66.19;100973.72;4976822;28;97788;-64
2022/09/20 07:01:12;;;;;;;5.35;1.35;;;;;;;11.61;65.90;100972.72;4915237;28;97627;-64
2022/09/20 07:03:40;;;;;;;2.58;0.80;;;;;;;11.75;65.92;100973.88;4942074;28;97410;-64
2022/09/20 07:06:07;;;;;;;2.00;0.80;;;;;;;11.94;65.39;100968.84;4934245;28;98032;-64
2022/09/20 07:08:33;;;;;;;2.70;1.02;;;;;;;12.13;65.37;100979.19;4928265;28;98180;-64
2022/09/20 07:11:15;;;;;;;1.98;0.65;;;;;;;12.39;64.49;100978.19;4926927;28;99944;-64
2022/09/20 07:13:42;;;;;;;3.05;1.10;;;;;;;12.49;64.78;100983.59;4950483;28;98237;-65
2022/09/20 07:16:12;;;;;;;4.38;1.05;;;;;;;12.68;64.54;100975.78;4959883;28;97513;-65
2022/09/20 07:18:40;;;;;;;3.45;0.90;;;;;;;12.60;64.91;100984.44;4955506;28;97559;-65
2022/09/20 07:21:13;;;;;;;3.95;0.95;;;;;;;12.52;65.33;100987.66;4933653;28;97943;-70
2022/09/20 07:23:41;;;;;;;1.35;0.70;;;;;;;12.48;65.42;100990.09;4922304;28;97694;-70
2022/09/20 07:26:20;;;;;;;2.72;0.70;;;;;;;12.41;65.36;100989.53;4922216;28;98230;-65
2022/09/20 07:28:48;;;;;;;2.38;0.63;;;;;;;12.38;65.49;100991.94;4953671;28;99722;-70
2022/09/20 07:31:15;;;;;;;3.65;0.82;;;;;;;12.31;65.42;100989.53;4928139;28;98277;-70
2022/09/20 07:33:41;;;;;;;5.10;0.70;;;;;;;12.27;65.74;100994.66;4955666;28;98965;-70
2022/09/20 07:36:11;;;;;;;1.90;0.68;;;;;;;12.26;65.67;100995.72;4919452;28;120298;-65
2022/09/20 07:38:39;;;;;;;2.42;0.85;;;;;;;12.26;65.37;100998.44;4932442;28;97498;-70
2022/09/20 07:41:06;;;;;;;2.58;0.50;;;;;;;12.30;65.55;101009.53;4974845;28;97427;-65
2022/09/20 07:43:35;;;;;;;3.67;0.50;;;;;;;12.35;65.38;101001.44;4939922;28;98408;-69
2022/09/20 07:46:02;;;;;;;1.65;0.65;;;;;;;12.48;65.29;101000.09;4940052;28;97979;-70
2022/09/20 07:48:34;;;;;;;1.88;0.68;;;;;;;12.59;64.70;101004.47;4916120;28;97731;-70
2022/09/20 07:51:12;;;;;;;2.37;0.63;;;;;;;12.81;64.35;101004.22;4933599;28;97691;-65
2022/09/20 07:53:39;;;;;;;4.72;0.93;;;;;;;13.22;63.91;101010.44;4931146;28;98190;-66
2022/09/20 07:56:14;;;;;;;1.83;0.68;;;;;;;14.07;62.36;101009.75;4925859;28;97663;-70
2022/09/20 07:58:43;;;;;;;1.77;0.60;;;;;;;14.31;62.58;101012.63;4935423;28;100083;-70
2022/09/20 08:01:13;;;;;;;3.33;0.57;;;;;;;14.94;61.03;101010.09;4932459;28;97826;-65
2022/09/20 08:03:41;;;;;;;2.20;0.70;;;;;;;15.70;59.92;101010.50;4929395;28;98466;-70
2022/09/20 08:06:10;;;;;;;2.35;0.70;;;;;;;16.52;58.63;101006.78;4939918;28;97794;-65
2022/09/20 08:08:39;;;;;;;3.05;0.77;;;;;;;16.49;59.23;101010.06;4937844;28;97631;-65
2022/09/20 08:11:17;;;;;;;1.10;0.50;;;;;;;16.44;59.68;101013.69;4933702;28;98156;-70
2022/09/20 08:13:49;;;;;;;1.92;0.55;;;;;;;16.48;59.82;101017.44;4939857;28;97338;-70
2022/09/20 08:16:15;;;;;;;2.30;0.50;;;;;;;16.60;59.35;101012.34;4903691;28;97782;-65
2022/09/20 08:18:56;;;;;;;2.20;1.00;;;;;;;16.65;59.90;101025.09;4909236;28;111939;-65
2022/09/20 08:21:22;;;;;;;1.50;0.70;;;;;;;16.65;59.55;101023.16;4966864;28;98034;-65
2022/09/20 08:23:51;;;;;;;2.08;0.52;;;;;;;16.55;59.76;101019.81;4955969;28;98988;-71
2022/09/20 08:26:23;;;;;;;2.95;0.68;;;;;;;16.59;59.72;101027.06;4974463;28;97563;-65
2022/09/20 08:28:52;;;;;;;3.50;0.50;;;;;;;16.98;58.99;101019.72;4966803;28;97737;-69
2022/09/20 08:31:21;;;;;;;1.40;0.47;;;;;;;16.96;58.82;101025.47;4957435;28;97633;-70
2022/09/20 08:33:50;;;;;;;4.80;0.60;;;;;;;16.99;58.50;101024.06;4946459;28;98364;-71
2022/09/20 08:36:20;;;;;;;2.50;0.88;;;;;;;16.87;58.96;101030.78;4940721;28;97806;-70
2022/09/20 08:38:47;;;;;;;2.38;0.70;;;;;;;16.68;59.33;101029.94;4941414;28;97802;-65
2022/09/20 08:41:38;;;;;;;1.33;0.52;;;;;;;16.48;59.75;101027.50;4958863;28;97922;-71
2022/09/20 08:44:44;;;;;;;1.95;0.32;;;;;;;16.29;60.12;101031.00;4960034;28;97641;-65
2022/09/20 08:47:24;;;;;;;1.83;0.55;;;;;;;16.14;60.19;101029.28;4955355;28;97759;-65
2022/09/20 08:49:52;;;;;;;3.08;0.65;;;;;;;16.23;59.50;101036.78;4953020;28;97635;-65
2022/09/20 08:52:29;;;;;;;0.80;0.30;;;;;;;16.37;59.17;101022.19;4970809;28;97736;-66
2022/09/20 08:54:59;;;;;;;1.30;0.30;;;;;;;16.49;58.63;101034.56;4921974;28;97523;-70
2022/09/20 08:57:32;;;;;;;2.15;0.20;;;;;;;16.39;59.25;101041.78;4952432;28;97541;-71
2022/09/20 09:00:16;;;;;;;2.92;0.30;;;;;;;16.35;58.94;101029.06;4975487;28;100353;-70
2022/09/20 09:02:43;;;;;;;1.75;0.40;;;;;;;16.41;58.47;101038.75;4950565;28;97745;-66
2022/09/20 09:05:39;;;;;;;0.93;0.20;;;;;;;16.60;58.76;101041.50;4954971;28;97556;-65
2022/09/20 09:08:20;;;;;;;1.90;0.38;;;;;;;16.65;58.66;101042.22;4942905;28;97454;-70
2022/09/20 09:10:58;;;;;;;1.05;0.30;;;;;;;16.77;58.39;101041.81;4968115;28;97568;-66
2022/09/20 09:13:52;;;;;;;0.80;0.20;;;;;;;16.69;58.39;101045.16;4944544;28;97631;-65
2022/09/20 09:16:19;;;;;;;0.70;0.20;;;;;;;16.36;58.89;101039.63;4944050;28;97650;-65
2022/09/20 09:18:48;;;;;;;2.53;0.38;;;;;;;16.64;58.26;101047.97;4971318;28;97848;-65
2022/09/20 09:21:20;;;;;;;1.35;0.28;;;;;;;17.95;56.30;101046.09;4973629;28;97747;-65
2022/09/20 09:24:15;;;;;;;1.20;0.20;;;;;;;18.03;56.66;101041.84;4936733;28;96975;-66
2022/09/20 09:26:45;;;;;;;1.05;0.30;;;;;;;18.80;54.79;101041.03;4942595;28;97546;-66
2022/09/20 09:29:19;;;;;;;0.82;0.30;;;;;;;18.93;55.18;101050.31;4971433;28;98258;-72
2022/09/20 09:31:48;;;;;;;1.70;0.20;;;;;;;18.72;55.14;101041.78;4944232;28;97749;-66
2022/09/20 09:34:29;;;;;;;0.60;0.20;;;;;;;18.56;55.99;101047.56;4958516;28;98254;-66
2022/09/20 09:36:56;;;;;;;4.50;0.20;;;;;;;18.50;55.40;101042.50;4961344;28;97430;-66
2022/09/20 09:39:29;;;;;;;0.57;0.20;;;;;;;18.29;56.19;101051.13;4898399;28;97703;-66
2022/09/20 09:41:59;;;;;;;0.32;0.10;;;;;;;18.10;55.76;101050.44;4941521;28;103919;-71
2022/09/20 09:44:32;;;;;;;0.43;0.10;;;;;;;18.49;55.16;101046.34;4958415;28;97797;-66
2022/09/20 09:46:58;;;;;;;1.75;0.20;;;;;;;18.69;54.47;101050.56;4977041;28;97669;-66
2022/09/20 09:49:34;;;;;;;2.03;0.15;;;;;;;19.50;53.54;101054.06;4953467;28;97368;-71
2022/09/20 09:52:15;;;;;;;1.00;0.10;;;;;;;21.18;50.80;101039.31;4962952;28;97485;-72
2022/09/20 09:54:52;;;;;;;0.50;0.20;;;;;;;22.74;49.53;101047.69;4961990;28;98098;-67
2022/09/20 09:57:52;;;;;;;0.68;0.30;;;;;;;24.79;47.29;101052.56;4959859;28;97671;-73
2022/09/20 10:00:25;;;;;;;1.02;0.20;;;;;;;23.75;49.44;101063.91;4959062;28;97407;-67
2022/09/20 10:03:16;;;;;;;0.95;0.20;;;;;;;25.43;46.75;101048.88;4936267;28;98240;-68
2022/09/20 10:06:03;;;;;;;1.25;0.10;;;;;;;26.18;45.79;101051.56;4955992;28;98031;-68
2022/09/20 10:08:42;;;;;;;0.50;0.10;;;;;;;25.21;48.13;101053.00;4966431;28;99353;-72
2022/09/20 10:11:19;;;;;;;2.75;0.20;;;;;;;24.10;49.15;101054.41;4966155;28;97511;-72
2022/09/20 10:14:19;;;;;;;0.70;0.15;;;;;;;23.60;49.59;101050.78;4955175;28;99563;-72
2022/09/20 10:17:23;;;;;;;0.75;0.20;;;;;;;23.14;49.94;101047.19;4973896;28;98300;-71
2022/09/20 10:20:36;;;;;;;0.93;0.10;;;;;;;23.34;48.95;101050.25;4920446;28;98948;-72
2022/09/20 10:23:09;;;;;;;0.82;0.20;;;;;;;23.36;48.56;101051.53;4973860;28;97601;-72
2022/09/20 10:26:04;;;;;;;2.45;0.22;;;;;;;23.15;49.08;101048.03;4958345;28;97741;-72
2022/09/20 10:29:14;;;;;;;1.00;0.20;;;;;;;23.70;48.25;101057.81;4945954;28;97826;-67
2022/09/20 10:32:09;;;;;;;0.82;0.10;;;;;;;22.52;49.66;101053.53;4959025;28;97716;-72
2022/09/20 10:34:56;;;;;;;0.60;0.13;;;;;;;21.48;51.03;101043.00;4945080;28;97673;-67
2022/09/20 10:37:45;;;;;;;0.32;0.10;;;;;;;21.08;51.17;101046.75;4957791;28;97876;-67
2022/09/20 10:40:24;;;;;;;0.57;0.15;;;;;;;20.46;51.48;101048.97;4934538;28;97708;-72
2022/09/20 10:43:14;;;;;;;2.50;0.10;;;;;;;20.00;51.60;101061.25;4961808;28;97832;-67
2022/09/20 10:46:27;;;;;;;1.35;0.10;;;;;;;19.43;52.52;101055.63;4948089;28;97814;-66
2022/09/20 10:49:02;;;;;;;0.52;0.20;;;;;;;18.87;53.24;101064.09;4935847;28;110472;-66
2022/09/20 10:51:59;;;;;;;4.00;0.30;;;;;;;18.39;53.51;101064.56;4944353;28;97685;-71
2022/09/20 10:55:08;;;;;;;0.82;0.20;;;;;;;17.96;53.93;101061.38;4943074;28;99306;-66
2022/09/20 10:58:14;;;;;;;0.90;0.20;;;;;;;17.59;54.22;101067.72;4946067;28;97519;-66
2022/09/20 11:01:22;;;;;;;1.08;0.10;;;;;;;17.94;53.29;101063.56;4958200;28;100526;-68
2022/09/20 11:04:20;;;;;;;0.45;0.10;;;;;;;21.30;47.58;101062.22;4973861;28;97610;-72
2022/09/20 11:07:06;;;;;;;0.55;0.13;;;;;;;22.90;45.67;101066.31;4955661;28;102669;-67
2022/09/20 11:09:45;;;;;;;0.57;0.20;;;;;;;21.25;48.57;101067.06;4944781;28;97626;-72
2022/09/20 11:12:28;;;;;;;2.28;0.30;;;;;;;23.76;44.83;101062.75;4921796;28;97750;-72
2022/09/20 11:15:21;;;;;;;1.48;0.10;;;;;;;22.81;46.96;101065.59;4953936;28;99940;-73
2022/09/20 11:18:08;;;;;;;0.60;0.17;;;;;;;23.64;44.88;101059.94;4942500;28;97469;-67
2022/09/20 11:20:43;;;;;;;1.52;0.20;;;;;;;25.52;42.76;101057.00;4954753;28;98399;-72
2022/09/20 11:23:19;;;;;;;2.00;0.15;;;;;;;26.47;41.74;101056.97;4909884;28;99571;-72
2022/09/20 11:25:57;;;;;;;0.88;0.10;;;;;;;28.20;39.30;101065.38;4938857;28;97618;-72
2022/09/20 11:28:47;;;;;;;1.20;0.10;;;;;;;29.53;38.39;101069.44;4924911;28;98904;-72
2022/09/20 11:31:18;;;;;;;1.42;0.10;;;;;;;30.23;37.34;101059.34;4937554;28;97560;-72
2022/09/20 11:33:54;;;;;;;0.20;0.10;;;;;;;30.61;36.51;101056.34;4957303;28;98084;-69
2022/09/20 11:36:29;;;;;;;0.40;0.10;;;;;;;30.94;36.52;101053.34;4920608;28;97800;-73
2022/09/20 11:39:02;;;;;;;0.35;0.10;;;;;;;29.83;37.37;101051.88;4920618;28;110700;-69
2022/09/20 11:41:32;;;;;;;0.82;0.10;;;;;;;29.93;37.61;101036.47;4935019;28;97363;-73
2022/09/20 11:44:08;;;;;;;0.30;0.03;;;;;;;30.74;36.08;101038.97;4928065;28;100943;-68
2022/09/20 11:46:51;;;;;;;0.63;0.10;;;;;;;31.15;35.82;101037.91;4949496;28;120560;-68
2022/09/20 11:49:48;;;;;;;0.60;0.20;;;;;;;31.58;36.37;101032.41;4959077;28;97621;-73
2022/09/20 11:52:39;;;;;;;0.40;0.10;;;;;;;31.55;36.17;101028.41;4943034;28;97665;-73
2022/09/20 11:55:33;;;;;;;1.15;0.10;;;;;;;31.40;36.18;101029.59;4965803;28;98436;-68
2022/09/20 11:58:06;;;;;;;0.32;0.10;;;;;;;31.23;35.61;101015.22;4939216;28;97849;-68
2022/09/20 12:00:37;;;;;;;0.28;0.10;;;;;;;31.08;35.62;101021.16;4943901;28;99024;-68
2022/09/20 12:03:16;;;;;;;0.57;0.10;;;;;;;30.64;35.90;101008.28;4942727;28;98020;-73
2022/09/20 12:05:42;;;;;;;1.05;0.10;;;;;;;30.42;35.74;101010.16;4912267;28;98282;-72
2022/09/20 12:08:24;;;;;;;0.30;0.10;;;;;;;28.51;38.84;101012.38;4936358;28;97669;-73
2022/09/20 12:11:02;;;;;;;0.60;0.10;;;;;;;29.18;37.40;101005.25;4936341;28;99181;-68
2022/09/20 12:13:32;;;;;;;0.52;0.10;;;;;;;27.87;37.96;101000.38;4942966;28;98094;-72
2022/09/20 12:16:16;;;;;;;0.50;0.10;;;;;;;26.24;40.59;100996.03;4916717;28;97803;-67
2022/09/20 12:18:54;;;;;;;0.20;0.00;;;;;;;25.53;41.21;100993.16;4941907;28;97635;-67
2022/09/20 12:21:23;;;;;;;1.65;0.10;;;;;;;25.71;40.09;100993.63;4967268;28;97542;-72
2022/09/20 12:23:55;;;;;;;0.30;0.10;;;;;;;25.93;40.07;100994.94;4957039;28;97455;-67
2022/09/20 12:26:21;;;;;;;;;;;;;;;25.97;40.95;101001.34;4991438;28;97764;-67
2022/09/20 12:29:00;;;;;;;0.60;0.10;;;;;;;25.86;40.38;100995.59;4976156;28;98284;-72
2022/09/20 12:31:32;;;;;;;0.28;0.10;;;;;;;25.70;39.67;101000.25;4972355;28;97323;-67
2022/09/20 12:34:10;;;;;;;0.65;0.15;;;;;;;24.50;41.71;100999.41;4969400;28;97961;-67
2022/09/20 12:36:45;;;;;;;0.77;0.10;;;;;;;24.67;40.67;101001.06;4969247;28;97619;-67
2022/09/20 12:39:11;;;;;;;0.40;0.10;;;;;;;24.63;40.46;101009.22;4954714;28;97437;-72
2022/09/20 12:42:08;;;;;;;0.68;0.10;;;;;;;24.62;41.15;100996.59;4993057;28;97961;-67
2022/09/20 12:44:46;;;;;;;0.70;0.10;;;;;;;24.52;40.28;101001.78;4971230;28;97668;-67
2022/09/20 12:47:11;;;;;;;0.30;0.10;;;;;;;24.27;40.36;100996.31;4960373;28;98118;-67